Time;durP1;ratioP1;P1;durP2;ratioP2;P2;SDS_P1;SDS_P2;PMS_P1;PMS_P2;Temp;Humidity;BMP_temperature;BMP_pressure;BME280_temperature;BME280_humidity;BME280_pressure;Samples;Min_cycle;Max_cycle;Signal;HPM_P1;HPM_P2
2023/12/28 00:01:42;;;;;;;1.25;1.15;;;4.60;99.90;;;;;;5042813;28;20040;-85
2023/12/28 00:04:10;;;;;;;1.02;1.02;;;4.60;99.90;;;;;;5066887;28;20041;-83
2023/12/28 00:06:37;;;;;;;0.95;0.75;;;4.60;99.90;;;;;;5071564;28;20024;-84
2023/12/28 00:09:03;;;;;;;2.45;1.67;;;4.60;99.90;;;;;;5069591;28;20040;-85
2023/12/28 00:11:30;;;;;;;0.88;0.88;;;4.60;99.90;;;;;;5070344;28;20044;-85
2023/12/28 00:13:56;;;;;;;1.83;0.90;;;4.50;99.90;;;;;;5070249;28;20032;-85
2023/12/28 00:16:22;;;;;;;0.65;0.65;;;4.50;99.90;;;;;;5078572;28;20040;-83
2023/12/28 00:18:49;;;;;;;1.92;1.33;;;4.50;99.90;;;;;;5063938;28;20536;-84
2023/12/28 00:21:15;;;;;;;1.75;1.65;;;4.50;99.90;;;;;;5067842;28;20056;-81
2023/12/28 00:23:41;;;;;;;0.40;0.40;;;4.40;99.90;;;;;;5059809;28;20033;-84
2023/12/28 00:26:07;;;;;;;0.50;0.50;;;4.30;99.90;;;;;;5069288;28;20032;-85
2023/12/28 00:28:33;;;;;;;0.57;0.57;;;4.30;99.90;;;;;;5070654;28;20033;-84
2023/12/28 00:31:00;;;;;;;0.40;0.40;;;4.20;99.90;;;;;;5070779;28;20417;-84
2023/12/28 00:33:26;;;;;;;0.88;0.85;;;4.10;99.90;;;;;;5066482;28;20362;-84
2023/12/28 00:35:52;;;;;;;0.68;0.68;;;4.10;99.90;;;;;;5053448;28;20048;-84
2023/12/28 00:38:19;;;;;;;1.17;1.17;;;4.00;99.90;;;;;;5069413;28;20047;-84
2023/12/28 00:40:45;;;;;;;0.47;0.47;;;4.00;99.90;;;;;;5066444;28;20036;-84
2023/12/28 00:43:12;;;;;;;0.28;0.28;;;3.90;99.90;;;;;;5070094;28;20047;-85
2023/12/28 00:45:38;;;;;;;2.00;1.52;;;3.90;99.90;;;;;;5065497;28;20044;-85
2023/12/28 00:48:04;;;;;;;0.95;0.95;;;3.90;99.90;;;;;;5068747;28;20040;-85
2023/12/28 00:50:32;;;;;;;0.55;0.52;;;3.90;99.90;;;;;;5064680;28;20033;-85
2023/12/28 00:52:58;;;;;;;0.65;0.65;;;3.90;99.90;;;;;;5063130;28;20037;-85
2023/12/28 00:55:24;;;;;;;2.13;1.33;;;4.00;99.90;;;;;;5069619;28;20044;-83
2023/12/28 00:57:51;;;;;;;1.15;1.05;;;4.00;99.90;;;;;;5070290;28;20025;-84
2023/12/28 01:00:18;;;;;;;1.10;0.90;;;4.00;99.90;;;;;;5069350;28;20397;-83
2023/12/28 01:02:46;;;;;;;1.35;0.85;;;4.00;99.90;;;;;;5065914;28;20474;-85
2023/12/28 01:05:14;;;;;;;0.43;0.43;;;4.00;99.90;;;;;;5068545;28;20392;-84
2023/12/28 01:07:41;;;;;;;1.58;0.80;;;4.10;99.90;;;;;;5066656;28;20052;-85
2023/12/28 01:10:07;;;;;;;0.28;0.28;;;4.10;99.90;;;;;;5073692;28;20044;-85
2023/12/28 01:12:34;;;;;;;1.55;0.98;;;4.10;99.90;;;;;;5051801;28;20040;-85
2023/12/28 01:15:00;;;;;;;0.85;0.85;;;4.20;99.90;;;;;;5057492;28;20044;-85
2023/12/28 01:17:26;;;;;;;0.68;0.68;;;4.20;99.90;;;;;;5071681;28;20036;-85
2023/12/28 01:19:52;;;;;;;7.70;1.10;;;4.30;99.90;;;;;;5072143;28;20043;-86
2023/12/28 01:22:18;;;;;;;0.50;0.43;;;4.40;81.30;;;;;;5089414;28;20047;-82
2023/12/28 01:24:49;;;;;;;0.60;0.60;;;4.50;47.20;;;;;;5093893;28;20053;-83
2023/12/28 01:27:15;;;;;;;0.47;0.47;;;4.50;30.30;;;;;;5092688;28;20036;-84
2023/12/28 01:29:42;;;;;;;0.80;0.77;;;4.50;30.00;;;;;;5095962;28;20047;-84
2023/12/28 01:32:09;;;;;;;0.25;0.25;;;4.50;21.50;;;;;;5098116;28;20045;-83
2023/12/28 01:34:37;;;;;;;19.73;2.35;;;4.60;9.10;;;;;;5067877;28;20049;-85
2023/12/28 01:37:03;;;;;;;2.53;1.45;;;4.70;1.00;;;;;;5057253;28;20047;-84
2023/12/28 01:39:29;;;;;;;0.57;0.57;;;4.70;1.00;;;;;;5073124;28;20043;-85
2023/12/28 01:41:55;;;;;;;0.30;0.30;;;4.80;1.00;;;;;;5072644;28;20481;-85
2023/12/28 01:44:22;;;;;;;1.33;0.95;;;4.90;1.00;;;;;;5073159;28;20043;-85
2023/12/28 01:46:48;;;;;;;1.30;1.20;;;4.80;1.00;;;;;;5073563;28;20051;-85
2023/12/28 01:49:14;;;;;;;0.63;0.63;;;4.90;1.00;;;;;;5071474;28;20482;-85
2023/12/28 01:51:42;;;;;;;0.35;0.35;;;5.00;1.00;;;;;;5070746;28;20045;-85
2023/12/28 01:54:08;;;;;;;1.77;1.38;;;5.00;1.00;;;;;;5073908;28;20028;-85
2023/12/28 01:56:35;;;;;;;1.80;1.10;;;5.10;1.00;;;;;;5065557;28;20024;-86
2023/12/28 01:59:01;;;;;;;1.10;0.75;;;5.20;1.00;;;;;;5072824;28;20047;-84
2023/12/28 02:01:27;;;;;;;0.75;0.68;;;5.30;1.00;;;;;;5071416;28;20036;-84
2023/12/28 02:03:56;;;;;;;0.38;0.38;;;5.30;1.00;;;;;;5080100;28;20040;-84
2023/12/28 02:06:24;;;;;;;0.75;0.50;;;5.30;1.00;;;;;;5063996;28;20048;-83
2023/12/28 02:08:50;;;;;;;0.75;0.75;;;5.30;1.00;;;;;;5073634;28;20024;-83
2023/12/28 02:11:18;;;;;;;1.02;0.93;;;5.50;1.00;;;;;;5072794;28;20375;-84
2023/12/28 02:13:45;;;;;;;0.52;0.43;;;5.60;1.00;;;;;;5072598;28;20044;-83
2023/12/28 02:16:23;;;;;;;0.50;0.50;;;5.70;1.00;;;;;;5071450;28;20041;-84
2023/12/28 02:18:51;;;;;;;2.15;0.95;;;5.70;1.00;;;;;;5072311;28;20048;-83
2023/12/28 02:21:20;;;;;;;0.30;0.30;;;5.90;1.00;;;;;;5063203;28;20049;-84
2023/12/28 02:23:49;;;;;;;0.63;0.63;;;6.20;99.90;;;;;;5070803;28;20028;-84
2023/12/28 02:26:19;;;;;;;0.45;0.43;;;6.90;99.90;;;;;;5069527;28;20060;-82
2023/12/28 02:28:46;;;;;;;0.10;0.10;;;7.50;46.40;;;;;;5072487;28;20032;-83
2023/12/28 02:31:21;;;;;;;0.85;0.73;;;7.90;1.00;;;;;;5072092;28;20037;-84
2023/12/28 02:34:00;;;;;;;0.20;0.20;;;8.20;1.00;;;;;;5075560;28;20040;-85
2023/12/28 02:36:27;;;;;;;0.40;0.40;;;8.50;1.00;;;;;;5073327;28;20477;-85
2023/12/28 02:38:58;;;;;;;6.55;2.88;;;8.70;1.00;;;;;;5071881;28;20393;-82
2023/12/28 02:41:25;;;;;;;10.18;4.22;;;8.80;1.00;;;;;;5069188;28;20051;-83
2023/12/28 02:43:52;;;;;;;5.30;1.77;;;8.90;1.00;;;;;;5073631;28;20028;-83
2023/12/28 02:46:18;;;;;;;0.63;0.63;;;8.90;1.00;;;;;;5071186;28;20053;-83
2023/12/28 02:48:45;;;;;;;0.40;0.40;;;8.90;1.00;;;;;;5069415;28;20040;-84
2023/12/28 02:51:13;;;;;;;1.75;1.65;;;9.00;1.00;;;;;;5058793;28;20045;-84
2023/12/28 02:53:39;;;;;;;1.92;1.83;;;9.20;1.00;;;;;;5054370;28;20595;-83
2023/12/28 02:56:06;;;;;;;0.38;0.38;;;9.10;1.00;;;;;;5070466;28;20040;-84
2023/12/28 02:58:32;;;;;;;0.30;0.30;;;9.20;1.00;;;;;;5070254;28;20067;-83
2023/12/28 03:00:58;;;;;;;2.28;1.33;;;9.20;1.00;;;;;;5067152;28;20036;-83
2023/12/28 03:03:24;;;;;;;0.50;0.50;;;9.20;1.00;;;;;;5069834;28;20036;-84
2023/12/28 03:05:50;;;;;;;0.10;0.10;;;9.10;1.00;;;;;;5070699;28;20072;-84
2023/12/28 03:08:16;;;;;;;0.40;0.40;;;9.00;1.00;;;;;;5064457;28;20052;-84
2023/12/28 03:10:43;;;;;;;0.20;0.20;;;9.00;1.00;;;;;;5070697;28;20401;-84
2023/12/28 03:13:09;;;;;;;0.50;0.50;;;9.00;1.00;;;;;;5069515;28;20381;-83
2023/12/28 03:15:35;;;;;;;1.00;0.98;;;8.90;1.00;;;;;;5071021;28;20041;-83
2023/12/28 03:18:01;;;;;;;0.80;0.55;;;8.90;1.00;;;;;;5054751;28;20041;-83
2023/12/28 03:20:27;;;;;;;0.20;0.20;;;9.00;1.00;;;;;;5071027;28;20474;-83
2023/12/28 03:22:53;;;;;;;0.10;0.10;;;9.00;1.00;;;;;;5071607;28;20076;-83
2023/12/28 03:25:21;;;;;;;0.45;0.45;;;9.00;1.00;;;;;;5064914;28;20045;-82
2023/12/28 03:27:47;;;;;;;0.15;0.15;;;9.00;1.00;;;;;;5071682;28;20043;-83
2023/12/28 03:30:13;;;;;;;0.63;0.60;;;9.10;1.00;;;;;;5073023;28;20024;-83
2023/12/28 03:32:39;;;;;;;0.73;0.52;;;9.10;1.00;;;;;;5063689;28;20037;-83
2023/12/28 03:35:07;;;;;;;1.67;0.40;;;9.10;1.00;;;;;;5070227;28;20025;-83
2023/12/28 03:37:33;;;;;;;0.13;0.13;;;9.10;1.00;;;;;;5091065;28;20040;-85
2023/12/28 03:39:59;;;;;;;1.33;0.75;;;9.00;1.00;;;;;;5091226;28;20109;-83
2023/12/28 03:42:25;;;;;;;0.60;0.60;;;9.00;1.00;;;;;;5093536;28;20035;-82
2023/12/28 03:44:52;;;;;;;0.50;0.50;;;8.90;1.00;;;;;;5090092;28;20039;-82
2023/12/28 03:47:18;;;;;;;0.40;0.40;;;8.90;1.00;;;;;;5073196;28;20378;-83
2023/12/28 03:49:44;;;;;;;0.10;0.10;;;8.90;1.00;;;;;;5084052;28;20037;-82
2023/12/28 03:52:12;;;;;;;1.55;1.20;;;9.00;1.00;;;;;;5094409;28;20036;-82
2023/12/28 03:54:39;;;;;;;0.80;0.80;;;9.10;1.00;;;;;;5086822;28;20036;-82
2023/12/28 03:57:05;;;;;;;1.10;1.00;;;9.10;1.00;;;;;;5069930;28;20676;-81
2023/12/28 03:59:32;;;;;;;6.57;1.15;;;9.20;1.00;;;;;;5072132;28;20052;-83
2023/12/28 04:01:58;;;;;;;0.20;0.20;;;9.30;14.00;;;;;;5070373;28;20048;-83
2023/12/28 04:04:24;;;;;;;0.85;0.85;;;9.20;48.10;;;;;;5067348;28;20032;-85
2023/12/28 04:06:50;;;;;;;0.60;0.60;;;9.30;78.50;;;;;;5057238;28;20029;-82
2023/12/28 04:09:17;;;;;;;0.43;0.43;;;9.30;98.20;;;;;;5070973;28;20056;-83
2023/12/28 04:11:43;;;;;;;0.25;0.25;;;9.20;99.90;;;;;;5076653;28;20382;-83
2023/12/28 04:14:10;;;;;;;0.35;0.35;;;9.20;99.90;;;;;;5067147;28;20039;-82
2023/12/28 04:16:36;;;;;;;1.55;0.30;;;9.10;99.90;;;;;;5077789;28;20043;-82
2023/12/28 04:19:02;;;;;;;0.20;0.20;;;9.20;99.90;;;;;;5054809;28;20055;-82
2023/12/28 04:21:28;;;;;;;0.20;0.20;;;9.30;99.90;;;;;;5084970;28;20064;-82
2023/12/28 04:23:54;;;;;;;2.00;0.47;;;9.30;99.90;;;;;;5068760;28;20048;-82
2023/12/28 04:26:20;;;;;;;1.85;0.57;;;9.20;99.90;;;;;;5052113;28;20049;-81
2023/12/28 04:28:47;;;;;;;0.10;0.10;;;9.20;99.90;;;;;;5069481;28;20478;-82
2023/12/28 04:31:13;;;;;;;0.20;0.20;;;9.20;99.90;;;;;;5070446;28;20040;-80
2023/12/28 04:33:39;;;;;;;0.65;0.57;;;9.20;99.90;;;;;;5071418;28;20028;-82
2023/12/28 04:36:07;;;;;;;0.10;0.10;;;9.30;99.90;;;;;;5068267;28;20398;-82
2023/12/28 04:38:33;;;;;;;0.47;0.47;;;9.30;99.90;;;;;;5049186;28;20049;-82
2023/12/28 04:41:00;;;;;;;0.57;0.30;;;9.20;99.90;;;;;;5070456;28;20036;-82
2023/12/28 04:43:26;;;;;;;0.30;0.30;;;9.20;99.90;;;;;;5069549;28;20053;-82
2023/12/28 04:45:54;;;;;;;0.20;0.20;;;9.30;99.90;;;;;;5053325;28;20057;-83
2023/12/28 04:48:21;;;;;;;0.10;0.10;;;9.20;1.00;;;;;;5062231;28;20029;-84
2023/12/28 04:50:48;;;;;;;0.65;0.50;;;9.30;1.00;;;;;;5068899;28;20494;-82
2023/12/28 04:53:14;;;;;;;0.17;0.17;;;9.20;1.00;;;;;;5053583;28;20049;-83
2023/12/28 04:55:40;;;;;;;4.57;1.30;;;9.20;1.00;;;;;;5068851;28;20044;-82
2023/12/28 04:58:07;;;;;;;1.33;0.95;;;9.20;1.00;;;;;;5051384;28;20044;-81
2023/12/28 05:00:34;;;;;;;0.43;0.32;;;9.20;1.00;;;;;;5039133;28;20045;-82
2023/12/28 05:03:00;;;;;;;0.13;0.13;;;9.20;1.00;;;;;;5065801;28;20036;-82
2023/12/28 05:05:26;;;;;;;0.10;0.10;;;9.20;1.00;;;;;;5055879;28;20502;-83
2023/12/28 05:07:52;;;;;;;0.28;0.20;;;9.20;1.00;;;;;;5072996;28;20025;-83
2023/12/28 05:10:18;;;;;;;0.10;0.10;;;9.20;1.00;;;;;;5072967;28;20473;-82
2023/12/28 05:12:45;;;;;;;0.40;0.40;;;9.20;1.00;;;;;;5064156;28;20033;-82
2023/12/28 05:15:12;;;;;;;0.17;0.17;;;9.20;1.00;;;;;;5072980;28;20473;-81
2023/12/28 05:17:38;;;;;;;0.15;0.15;;;9.20;1.00;;;;;;5049432;28;20497;-81
2023/12/28 05:20:04;;;;;;;0.28;0.28;;;9.20;1.00;;;;;;5064969;28;20414;-82
2023/12/28 05:22:31;;;;;;;0.10;0.10;;;9.20;1.00;;;;;;5061698;28;20045;-82
2023/12/28 05:24:57;;;;;;;4.07;0.98;;;9.20;13.50;;;;;;5073068;28;20044;-82
2023/12/28 05:27:23;;;;;;;0.52;0.52;;;9.20;37.60;;;;;;5073083;28;20037;-82
2023/12/28 05:29:49;;;;;;;0.57;0.57;;;9.20;67.00;;;;;;5064270;28;20040;-83
2023/12/28 05:32:15;;;;;;;0.13;0.13;;;9.20;96.30;;;;;;5060781;28;20032;-83
2023/12/28 05:34:42;;;;;;;0.13;0.13;;;9.20;99.90;;;;;;5074733;28;20041;-82
2023/12/28 05:37:08;;;;;;;0.10;0.10;;;9.20;99.90;;;;;;5070846;28;20396;-82
2023/12/28 05:39:34;;;;;;;2.83;0.55;;;9.20;99.90;;;;;;5072737;28;20036;-82
2023/12/28 05:42:00;;;;;;;0.10;0.10;;;9.20;99.90;;;;;;5065449;28;20064;-82
2023/12/28 05:44:26;;;;;;;0.30;0.30;;;9.20;99.90;;;;;;5072705;28;20045;-82
2023/12/28 05:46:52;;;;;;;0.20;0.15;;;9.20;99.90;;;;;;5055701;28;20053;-82
2023/12/28 05:49:19;;;;;;;0.17;0.17;;;9.10;99.90;;;;;;5077811;28;20037;-82
2023/12/28 05:51:45;;;;;;;0.10;0.10;;;9.10;99.90;;;;;;5086032;28;20028;-82
2023/12/28 05:54:11;;;;;;;14.38;1.00;;;9.20;99.90;;;;;;5089478;28;20040;-81
2023/12/28 05:56:37;;;;;;;0.20;0.20;;;9.10;99.90;;;;;;5065258;28;20410;-81
2023/12/28 05:59:04;;;;;;;0.28;0.28;;;9.10;99.90;;;;;;5075779;28;20041;-82
2023/12/28 06:01:30;;;;;;;3.75;0.25;;;9.10;99.90;;;;;;5073612;28;20103;-82
2023/12/28 06:03:56;;;;;;;0.50;0.20;;;9.10;99.90;;;;;;5067520;28;20397;-81
2023/12/28 06:06:22;;;;;;;0.10;0.10;;;9.10;99.90;;;;;;5074200;28;20032;-83
2023/12/28 06:08:48;;;;;;;0.10;0.10;;;9.10;99.90;;;;;;5071833;28;20048;-82
2023/12/28 06:11:15;;;;;;;0.10;0.10;;;9.10;99.90;;;;;;5067815;28;20036;-83
2023/12/28 06:13:41;;;;;;;0.10;0.10;;;9.10;99.90;;;;;;5072430;28;20055;-83
2023/12/28 06:16:08;;;;;;;0.10;0.10;;;9.10;99.90;;;;;;5053675;28;20045;-81
2023/12/28 06:18:34;;;;;;;0.30;0.30;;;9.00;1.00;;;;;;5067596;28;20036;-85
2023/12/28 06:21:02;;;;;;;0.20;0.20;;;9.00;1.00;;;;;;5053956;28;20048;-82
2023/12/28 06:23:28;;;;;;;0.20;0.20;;;8.90;1.00;;;;;;5072059;28;20037;-83
2023/12/28 06:25:54;;;;;;;0.10;0.10;;;8.90;1.00;;;;;;5065657;28;20032;-83
2023/12/28 06:28:20;;;;;;;0.13;0.13;;;8.90;1.00;;;;;;5088573;28;20036;-84
2023/12/28 06:30:47;;;;;;;0.47;0.47;;;8.90;1.00;;;;;;5070193;28;20466;-83
2023/12/28 06:33:13;;;;;;;0.50;0.50;;;8.90;1.00;;;;;;5072056;28;20028;-84
2023/12/28 06:35:39;;;;;;;0.50;0.35;;;8.90;1.00;;;;;;5068279;28;20041;-82
2023/12/28 06:38:06;;;;;;;0.43;0.25;;;8.90;1.00;;;;;;5055010;28;20056;-84
2023/12/28 06:40:32;;;;;;;0.45;0.38;;;8.90;1.00;;;;;;5070858;28;20049;-82
2023/12/28 06:42:58;;;;;;;0.30;0.30;;;8.90;1.00;;;;;;5070800;28;20463;-82
2023/12/28 06:45:27;;;;;;;0.43;0.43;;;9.00;1.00;;;;;;5067293;28;20397;-82
2023/12/28 06:47:54;;;;;;;0.50;0.47;;;8.90;1.00;;;;;;5066321;28;20035;-82
2023/12/28 06:50:20;;;;;;;0.10;0.10;;;8.90;1.00;;;;;;5061071;28;20036;-82
2023/12/28 06:52:46;;;;;;;0.38;0.38;;;8.90;1.00;;;;;;5066960;28;20029;-82
2023/12/28 06:55:12;;;;;;;0.10;0.10;;;8.90;1.00;;;;;;5053428;28;20044;-83
2023/12/28 06:57:38;;;;;;;2.67;1.40;;;8.90;1.00;;;;;;5068097;28;20032;-82
2023/12/28 07:00:05;;;;;;;1.48;1.05;;;8.90;99.90;;;;;;5067417;28;20040;-84
2023/12/28 07:02:31;;;;;;;2.78;1.52;;;9.00;99.90;;;;;;5070639;28;20466;-82
2023/12/28 07:04:57;;;;;;;1.67;0.80;;;9.00;99.90;;;;;;5069947;28;20043;-83
2023/12/28 07:07:23;;;;;;;0.20;0.20;;;9.00;99.90;;;;;;5072170;28;20366;-83
2023/12/28 07:09:49;;;;;;;0.40;0.40;;;8.90;99.90;;;;;;5061756;28;20024;-83
2023/12/28 07:12:16;;;;;;;0.88;0.65;;;8.90;1.00;;;;;;5064589;28;20039;-83
2023/12/28 07:14:42;;;;;;;0.32;0.30;;;8.90;1.00;;;;;;5064592;28;20033;-83
2023/12/28 07:17:11;;;;;;;0.20;0.20;;;8.90;1.00;;;;;;5070883;28;20063;-82
2023/12/28 07:19:37;;;;;;;0.10;0.10;;;8.90;1.00;;;;;;5078958;28;20044;-83
2023/12/28 07:22:04;;;;;;;0.57;0.45;;;8.90;1.00;;;;;;5070446;28;20517;-82
2023/12/28 07:24:30;;;;;;;0.47;0.20;;;8.90;1.00;;;;;;5067723;28;20029;-84
2023/12/28 07:26:56;;;;;;;0.10;0.10;;;8.90;1.00;;;;;;5051167;28;20044;-83
2023/12/28 07:29:22;;;;;;;2.28;0.75;;;8.90;1.00;;;;;;5076315;28;20025;-82
2023/12/28 07:31:48;;;;;;;0.75;0.73;;;9.00;1.00;;;;;;5072522;28;20213;-82
2023/12/28 07:34:15;;;;;;;0.70;0.70;;;9.00;1.00;;;;;;5070403;28;20410;-83
2023/12/28 07:36:43;;;;;;;0.80;0.68;;;9.00;1.00;;;;;;5067414;28;20029;-81
2023/12/28 07:39:10;;;;;;;0.10;0.10;;;9.00;1.00;;;;;;5061180;28;20033;-84
2023/12/28 07:41:36;;;;;;;0.10;0.10;;;9.10;1.00;;;;;;5059911;28;20028;-83
2023/12/28 07:44:02;;;;;;;0.15;0.15;;;9.10;1.00;;;;;;5068196;28;20405;-84
2023/12/28 07:46:29;;;;;;;0.20;0.20;;;9.10;1.00;;;;;;5060385;28;20053;-82
2023/12/28 07:48:55;;;;;;;0.43;0.35;;;9.10;1.00;;;;;;5069654;28;20032;-82
2023/12/28 07:51:21;;;;;;;0.50;0.50;;;9.20;1.00;;;;;;5065184;28;20402;-83
2023/12/28 07:53:47;;;;;;;2.08;0.50;;;9.20;1.00;;;;;;5066663;28;20029;-83
2023/12/28 07:56:14;;;;;;;1.48;1.38;;;9.20;1.00;;;;;;5063397;28;20029;-83
2023/12/28 07:58:40;;;;;;;2.63;1.75;;;9.20;1.00;;;;;;5072022;28;20032;-82
2023/12/28 08:01:12;;;;;;;0.73;0.55;;;9.20;1.00;;;;;;5068873;28;20020;-82
2023/12/28 08:03:38;;;;;;;0.32;0.32;;;9.10;1.00;;;;;;5068284;28;21850;-81
2023/12/28 08:06:05;;;;;;;0.35;0.35;;;9.20;1.00;;;;;;5066727;28;20040;-79
2023/12/28 08:08:32;;;;;;;1.58;1.23;;;9.20;1.00;;;;;;5069438;28;20039;-81
2023/12/28 08:10:58;;;;;;;3.63;1.98;;;9.30;1.00;;;;;;5067436;28;20021;-81
2023/12/28 08:13:24;;;;;;;0.45;0.30;;;9.30;1.00;;;;;;5053899;28;20044;-83
2023/12/28 08:15:50;;;;;;;1.48;1.38;;;9.30;99.90;;;;;;5069372;28;20366;-84
2023/12/28 08:18:16;;;;;;;1.55;1.00;;;9.30;1.00;;;;;;5070820;28;20035;-83
2023/12/28 08:20:42;;;;;;;0.57;0.40;;;9.30;1.00;;;;;;5064159;28;20044;-83
2023/12/28 08:23:08;;;;;;;1.20;0.73;;;9.30;1.00;;;;;;5068445;28;20493;-83
2023/12/28 08:25:35;;;;;;;4.90;0.50;;;9.30;1.00;;;;;;5060186;28;20047;-83
2023/12/28 08:28:01;;;;;;;0.55;0.55;;;9.30;1.00;;;;;;5070052;28;20037;-83
2023/12/28 08:30:27;;;;;;;1.30;1.20;;;9.30;1.00;;;;;;5066144;28;20025;-82
2023/12/28 08:32:53;;;;;;;0.50;0.47;;;9.30;1.00;;;;;;5052397;28;20477;-83
2023/12/28 08:35:20;;;;;;;0.73;0.73;;;9.30;1.00;;;;;;5067416;28;20374;-82
2023/12/28 08:37:46;;;;;;;1.05;0.95;;;9.30;1.00;;;;;;5069423;28;20220;-82
2023/12/28 08:40:12;;;;;;;0.80;0.80;;;9.30;1.00;;;;;;5072384;28;20032;-82
2023/12/28 08:42:39;;;;;;;0.25;0.25;;;9.40;1.00;;;;;;5071673;28;20051;-81
2023/12/28 08:45:06;;;;;;;0.20;0.20;;;9.40;1.00;;;;;;5056952;28;20044;-83
2023/12/28 08:47:32;;;;;;;0.40;0.32;;;9.40;99.90;;;;;;5069969;28;20049;-83
2023/12/28 08:49:58;;;;;;;0.32;0.32;;;9.50;99.90;;;;;;5073804;28;20025;-84
2023/12/28 08:52:24;;;;;;;0.95;0.63;;;9.50;99.90;;;;;;5073200;28;20033;-83
2023/12/28 08:54:51;;;;;;;0.20;0.20;;;9.50;99.90;;;;;;5070785;28;20037;-84
2023/12/28 08:57:17;;;;;;;0.17;0.17;;;9.50;99.90;;;;;;5072559;28;20040;-83
2023/12/28 08:59:43;;;;;;;0.35;0.35;;;9.50;99.90;;;;;;5068455;28;20040;-83
2023/12/28 09:02:10;;;;;;;3.13;0.68;;;9.50;99.90;;;;;;5071988;28;20043;-84
2023/12/28 09:04:36;;;;;;;0.40;0.40;;;9.50;99.90;;;;;;5080207;28;20458;-82
2023/12/28 09:07:02;;;;;;;1.92;1.13;;;9.50;99.90;;;;;;5071790;28;20044;-83
2023/12/28 09:09:28;;;;;;;0.13;0.13;;;9.50;99.90;;;;;;5070390;28;20054;-83
2023/12/28 09:11:55;;;;;;;5.25;2.42;;;9.60;99.90;;;;;;5071934;28;20040;-83
2023/12/28 09:14:21;;;;;;;3.13;2.92;;;9.50;99.90;;;;;;5073415;28;20051;-82
2023/12/28 09:16:47;;;;;;;0.47;0.47;;;9.50;99.90;;;;;;5071890;28;20045;-83
2023/12/28 09:19:14;;;;;;;0.75;0.30;;;9.50;99.90;;;;;;5075099;28;20036;-86
2023/12/28 09:21:41;;;;;;;0.47;0.47;;;9.50;99.90;;;;;;5075087;28;20056;-86
2023/12/28 09:24:07;;;;;;;0.57;0.57;;;9.60;99.90;;;;;;5071476;28;20039;-85
2023/12/28 09:26:34;;;;;;;0.20;0.20;;;9.60;99.90;;;;;;5069543;28;20040;-85
2023/12/28 09:29:00;;;;;;;0.32;0.30;;;9.50;99.90;;;;;;5070425;28;20032;-86
2023/12/28 09:31:26;;;;;;;0.30;0.30;;;9.60;99.90;;;;;;5074114;28;20027;-86
2023/12/28 09:33:52;;;;;;;0.20;0.20;;;9.60;99.90;;;;;;5072171;28;20043;-85
2023/12/28 09:36:18;;;;;;;0.20;0.20;;;9.60;99.90;;;;;;5071697;28;20048;-84
2023/12/28 09:38:45;;;;;;;0.20;0.20;;;9.60;99.90;;;;;;5070753;28;20478;-85
2023/12/28 09:41:16;;;;;;;0.22;0.22;;;9.60;99.90;;;;;;5055034;28;20040;-85
2023/12/28 09:44:00;;;;;;;;;;;9.60;99.90;;;;;;5072702;28;20033;-84
2023/12/28 09:46:27;;;;;;;3.83;3.42;;;9.60;99.90;;;;;;5069045;28;19928;-85
2023/12/28 09:48:56;;;;;;;8.77;7.85;;;9.60;99.90;;;;;;5073248;28;20020;-85
2023/12/28 09:51:22;;;;;;;6.20;1.92;;;9.60;99.90;;;;;;5071130;28;20382;-83
2023/12/28 09:53:48;;;;;;;0.35;0.22;;;9.70;99.90;;;;;;5072511;28;20043;-85
2023/12/28 09:56:16;;;;;;;0.30;0.30;;;9.70;99.90;;;;;;5069508;28;20028;-84
2023/12/28 09:58:44;;;;;;;1.20;1.10;;;9.70;99.90;;;;;;5072899;28;20029;-84
2023/12/28 10:01:10;;;;;;;0.20;0.20;;;9.80;99.90;;;;;;5063213;28;20482;-84
2023/12/28 10:03:37;;;;;;;3.30;0.85;;;9.80;99.90;;;;;;5073208;28;20043;-84
2023/12/28 10:06:03;;;;;;;0.32;0.32;;;9.80;99.90;;;;;;5069345;28;20036;-85
2023/12/28 10:08:29;;;;;;;0.73;0.73;;;9.80;99.90;;;;;;5070889;28;20036;-83
2023/12/28 10:10:58;;;;;;;0.40;0.40;;;9.80;99.90;;;;;;5085539;28;20048;-83
2023/12/28 10:13:25;;;;;;;0.57;0.50;;;9.90;99.90;;;;;;5084996;28;20035;-83
2023/12/28 10:15:51;;;;;;;0.32;0.32;;;9.90;99.90;;;;;;5093146;28;20017;-83
2023/12/28 10:18:19;;;;;;;0.10;0.10;;;9.90;99.90;;;;;;5089056;28;20038;-85
2023/12/28 10:20:53;;;;;;;1.38;0.55;;;9.90;99.90;;;;;;5071779;28;20039;-84
2023/12/28 10:23:21;;;;;;;0.20;0.20;;;10.00;99.90;;;;;;5071669;28;20056;-85
2023/12/28 10:25:49;;;;;;;0.25;0.25;;;9.90;99.90;;;;;;5071559;28;20052;-85
2023/12/28 10:28:18;;;;;;;0.30;0.30;;;9.90;99.90;;;;;;5069147;28;20041;-82
2023/12/28 10:30:44;;;;;;;0.10;0.10;;;10.00;99.90;;;;;;5072496;28;20039;-84
2023/12/28 10:33:11;;;;;;;0.10;0.10;;;10.00;99.90;;;;;;5066148;28;20033;-82
2023/12/28 10:35:37;;;;;;;0.30;0.30;;;10.00;99.90;;;;;;5065063;28;20330;-86
2023/12/28 10:38:06;;;;;;;0.30;0.30;;;10.00;99.90;;;;;;5084392;28;20044;-84
2023/12/28 10:40:33;;;;;;;2.38;0.40;;;10.10;99.90;;;;;;5072667;28;20462;-83
2023/12/28 10:43:02;;;;;;;0.13;0.13;;;10.10;99.90;;;;;;5071365;28;20473;-84
2023/12/28 10:45:37;;;;;;;0.13;0.13;;;10.20;99.90;;;;;;5063774;28;20029;-82
2023/12/28 10:48:11;;;;;;;1.30;0.63;;;10.30;99.90;;;;;;5065220;28;20041;-84
2023/12/28 10:50:41;;;;;;;1.23;0.82;;;10.40;99.90;;;;;;5079984;28;20032;-82
2023/12/28 10:53:37;;;;;;;0.50;0.50;;;10.50;99.90;;;;;;5070213;28;20055;-84
2023/12/28 10:56:21;;;;;;;1.27;0.45;;;10.60;99.90;;;;;;5062013;28;20029;-84
2023/12/28 10:59:20;;;;;;;2.92;1.42;;;10.60;99.90;;;;;;5070399;28;20248;-82
2023/12/28 11:01:49;;;;;;;2.03;1.40;;;10.60;99.90;;;;;;5068735;28;20377;-83
2023/12/28 11:04:43;;;;;;;0.20;0.20;;;10.60;99.90;;;;;;5068122;28;20040;-82
2023/12/28 11:07:13;;;;;;;0.20;0.20;;;10.70;99.90;;;;;;5044126;28;20056;-82
2023/12/28 11:09:42;;;;;;;0.20;0.20;;;10.60;99.90;;;;;;5071561;28;20045;-82
2023/12/28 11:12:10;;;;;;;0.40;0.40;;;10.50;99.90;;;;;;5065691;28;20393;-82
2023/12/28 11:14:42;;;;;;;0.65;0.65;;;10.50;99.90;;;;;;5075480;28;20493;-81
2023/12/28 11:17:11;;;;;;;0.30;0.30;;;10.50;99.90;;;;;;5073121;28;20044;-82
2023/12/28 11:19:38;;;;;;;0.50;0.40;;;10.50;99.90;;;;;;5068979;28;20032;-82
2023/12/28 11:22:05;;;;;;;0.40;0.40;;;10.50;99.90;;;;;;5071113;28;20056;-82
2023/12/28 11:24:32;;;;;;;0.20;0.20;;;10.50;99.90;;;;;;5069725;28;20029;-82
2023/12/28 11:26:59;;;;;;;0.10;0.10;;;10.40;99.90;;;;;;5065289;28;20040;-82
2023/12/28 11:29:25;;;;;;;0.20;0.20;;;10.40;99.90;;;;;;5068543;28;20031;-83
2023/12/28 11:31:56;;;;;;;1.08;0.77;;;10.40;99.90;;;;;;5072438;28;20612;-83
2023/12/28 11:34:29;;;;;;;8.73;0.75;;;10.40;99.90;;;;;;5066926;28;20033;-82
2023/12/28 11:36:57;;;;;;;0.30;0.30;;;10.40;99.90;;;;;;5065371;28;20051;-84
2023/12/28 11:39:34;;;;;;;2.38;1.58;;;10.30;99.90;;;;;;5069770;28;20029;-83
2023/12/28 11:42:05;;;;;;;1.33;1.05;;;10.30;99.90;;;;;;5075720;28;20060;-83
2023/12/28 11:44:37;;;;;;;1.05;1.05;;;10.20;99.90;;;;;;5064514;28;20044;-82
2023/12/28 11:47:27;;;;;;;0.52;0.38;;;10.20;99.90;;;;;;5064855;28;20040;-82
2023/12/28 11:49:54;;;;;;;0.35;0.35;;;10.20;99.90;;;;;;5066937;28;20025;-83
2023/12/28 11:52:25;;;;;;;0.40;0.40;;;10.10;99.90;;;;;;5070148;28;20045;-85
2023/12/28 11:54:51;;;;;;;;;;;10.10;99.90;;;;;;5066232;28;20032;-83
2023/12/28 11:57:18;;;;;;;0.47;0.47;;;10.10;99.90;;;;;;5069224;28;19919;-83
2023/12/28 11:59:44;;;;;;;0.93;0.55;;;10.10;99.90;;;;;;5057417;28;20044;-83
2023/12/28 12:02:11;;;;;;;2.22;2.03;;;10.20;99.90;;;;;;5053025;28;20052;-84
2023/12/28 12:04:37;;;;;;;0.75;0.75;;;10.20;99.90;;;;;;5068608;28;20497;-85
2023/12/28 12:07:04;;;;;;;0.30;0.30;;;10.10;99.90;;;;;;5069280;28;20036;-84
2023/12/28 12:09:34;;;;;;;0.40;0.40;;;10.10;99.90;;;;;;5048740;28;20044;-83
2023/12/28 12:12:01;;;;;;;2.72;0.47;;;10.10;99.90;;;;;;5079312;28;20047;-81
2023/12/28 12:14:29;;;;;;;0.75;0.70;;;10.00;99.90;;;;;;5065102;28;20462;-80
2023/12/28 12:16:59;;;;;;;1.13;1.02;;;10.00;99.90;;;;;;5068386;28;20044;-80
2023/12/28 12:19:26;;;;;;;0.30;0.30;;;9.90;99.90;;;;;;5067477;28;20063;-82
2023/12/28 12:21:53;;;;;;;0.60;0.60;;;10.00;99.90;;;;;;5076843;28;20044;-80
2023/12/28 12:24:21;;;;;;;4.85;0.82;;;9.90;99.90;;;;;;5071994;28;20417;-79
2023/12/28 12:26:48;;;;;;;0.68;0.68;;;9.90;99.90;;;;;;5069435;28;20029;-81
2023/12/28 12:29:14;;;;;;;0.50;0.45;;;9.90;99.90;;;;;;5065037;28;20037;-81
2023/12/28 12:31:41;;;;;;;1.05;0.93;;;9.80;99.90;;;;;;5069438;28;20044;-81
2023/12/28 12:34:09;;;;;;;1.33;1.05;;;9.70;1.00;;;;;;5065742;28;20043;-80
2023/12/28 12:36:36;;;;;;;1.92;1.13;;;9.70;1.00;;;;;;5053483;28;20048;-81
2023/12/28 12:39:05;;;;;;;0.47;0.47;;;9.70;1.00;;;;;;5062062;28;20390;-79
2023/12/28 12:41:35;;;;;;;0.68;0.50;;;9.60;1.00;;;;;;5070154;28;20032;-77
2023/12/28 12:44:01;;;;;;;0.85;0.80;;;9.60;16.10;;;;;;5069236;28;20500;-79
2023/12/28 12:46:28;;;;;;;0.80;0.80;;;9.50;60.50;;;;;;5070302;28;20047;-79
2023/12/28 12:48:59;;;;;;;0.75;0.75;;;9.50;99.90;;;;;;5066461;28;20043;-77
2023/12/28 12:51:25;;;;;;;0.98;0.70;;;9.50;99.90;;;;;;5069039;28;20033;-80
2023/12/28 12:54:05;;;;;;;0.30;0.28;;;9.50;99.90;;;;;;5062761;28;20040;-75
2023/12/28 12:56:31;;;;;;;0.25;0.20;;;9.40;99.90;;;;;;5064971;28;20044;-80
2023/12/28 12:58:58;;;;;;;0.40;0.40;;;9.40;99.90;;;;;;5069176;28;20029;-78
2023/12/28 13:01:24;;;;;;;0.40;0.40;;;9.40;99.90;;;;;;5061268;28;20025;-78